Time;durP1;ratioP1;P1;durP2;ratioP2;P2;SDS_P1;SDS_P2;PMS_P1;PMS_P2;Temp;Humidity;BMP_temperature;BMP_pressure;BME280_temperature;BME280_humidity;BME280_pressure;Samples;Min_cycle;Max_cycle;Signal;HPM_P1;HPM_P2
2023/10/19 00:01:58;;;;;;;14.43;10.10;;;;;;;7.92;100.00;99227.69;4936074;29;20027;-79
2023/10/19 00:04:24;;;;;;;12.98;9.65;;;;;;;7.95;100.00;99227.25;4940319;29;20028;-79
2023/10/19 00:06:50;;;;;;;15.60;10.25;;;;;;;7.97;100.00;99236.69;4938486;29;20043;-79
2023/10/19 00:09:16;;;;;;;12.73;9.70;;;;;;;8.03;100.00;99237.69;4934488;29;20062;-78
2023/10/19 00:11:41;;;;;;;13.63;10.10;;;;;;;8.04;100.00;99216.03;4930734;29;20039;-79
2023/10/19 00:14:15;;;;;;;13.48;9.90;;;;;;;8.08;100.00;99213.72;4934987;29;20439;-79
2023/10/19 00:16:50;;;;;;;15.00;10.43;;;;;;;8.09;100.00;99211.88;4926669;29;20036;-79
2023/10/19 00:19:19;;;;;;;13.00;9.93;;;;;;;8.13;100.00;99213.03;4936183;29;20503;-79
2023/10/19 00:21:50;;;;;;;14.25;10.30;;;;;;;8.15;100.00;99211.81;4923265;29;20027;-79
2023/10/19 00:24:34;;;;;;;16.02;10.80;;;;;;;8.16;100.00;99217.97;4935719;29;20130;-79
2023/10/19 00:27:15;;;;;;;15.20;10.60;;;;;;;8.21;100.00;99206.59;4937729;29;20035;-79
2023/10/19 00:29:42;;;;;;;12.30;10.02;;;;;;;8.19;100.00;99193.41;4934814;29;20374;-79
2023/10/19 00:32:13;;;;;;;12.93;10.15;;;;;;;8.18;100.00;99194.44;4935071;29;20028;-79
2023/10/19 00:34:39;;;;;;;14.25;10.70;;;;;;;8.23;100.00;99191.94;4934916;29;20527;-79
2023/10/19 00:37:07;;;;;;;13.15;10.20;;;;;;;8.26;100.00;99182.63;4921588;29;20023;-79
2023/10/19 00:39:42;;;;;;;13.55;10.93;;;;;;;8.27;100.00;99186.94;4922894;29;20028;-79
2023/10/19 00:42:08;;;;;;;16.95;10.85;;;;;;;8.28;100.00;99183.22;4920046;29;20098;-79
2023/10/19 00:44:42;;;;;;;15.98;10.95;;;;;;;8.34;100.00;99177.78;4934792;29;20465;-79
2023/10/19 00:47:13;;;;;;;15.60;11.75;;;;;;;8.32;100.00;99181.72;4933581;29;20040;-79
2023/10/19 00:49:39;;;;;;;14.95;11.25;;;;;;;8.34;100.00;99176.97;4922208;29;20513;-79
2023/10/19 00:52:11;;;;;;;15.93;11.10;;;;;;;8.40;100.00;99176.06;4912315;29;20035;-79
2023/10/19 00:54:58;;;;;;;15.60;11.73;;;;;;;8.44;100.00;99163.03;4914068;29;20627;-79
2023/10/19 00:57:34;;;;;;;16.70;11.48;;;;;;;8.43;100.00;99159.53;4928344;29;20484;-79
2023/10/19 01:00:44;;;;;;;15.80;11.33;;;;;;;8.46;100.00;99158.28;4903719;29;20082;-79
2023/10/19 01:02:45;;;;;;;15.15;12.23;;;;;;;8.51;100.00;99160.31;4905490;29;20155;-79
2023/10/19 01:05:13;;;;;;;15.32;11.82;;;;;;;8.54;100.00;99167.91;4917066;29;20444;-80
2023/10/19 01:07:38;;;;;;;16.42;12.18;;;;;;;8.60;100.00;99165.13;4928908;29;20171;-79
2023/10/19 01:10:21;;;;;;;18.15;12.55;;;;;;;8.64;100.00;99157.44;4932936;29;20039;-80
2023/10/19 01:12:46;;;;;;;18.10;13.02;;;;;;;8.64;100.00;99150.22;4934017;29;20036;-79
2023/10/19 01:17:53;;;;;;;16.67;12.30;;;;;;;8.71;100.00;99149.31;4922274;29;20062;-79
2023/10/19 01:20:33;;;;;;;18.17;13.50;;;;;;;8.75;100.00;99139.75;4930351;29;20028;-80
2023/10/19 01:28:25;;;;;;;17.45;13.18;;;;;;;8.88;100.00;99133.41;4928658;29;20067;-79
2023/10/19 01:30:53;;;;;;;17.65;13.30;;;;;;;8.91;100.00;99138.31;4929879;29;20032;-80
2023/10/19 01:33:22;;;;;;;15.50;12.77;;;;;;;9.00;100.00;99138.81;4932128;29;20049;-80
2023/10/19 01:38:32;;;;;;;17.17;13.65;;;;;;;9.03;100.00;99143.69;4923390;29;20654;-80
2023/10/19 01:41:05;;;;;;;18.02;13.32;;;;;;;9.07;100.00;99139.50;4940582;23;20027;-79
2023/10/19 01:43:31;;;;;;;19.20;14.10;;;;;;;9.10;100.00;99144.44;4952694;29;20039;-80
2023/10/19 01:45:57;;;;;;;17.88;13.98;;;;;;;9.14;100.00;99145.63;4955263;29;20027;-80
2023/10/19 01:48:32;;;;;;;16.80;13.20;;;;;;;9.20;100.00;99141.19;4956306;29;20062;-80
2023/10/19 01:51:00;;;;;;;17.42;12.95;;;;;;;9.32;100.00;99141.22;4955386;29;20023;-80
2023/10/19 01:53:25;;;;;;;17.17;12.88;;;;;;;9.29;100.00;99137.09;4954865;29;20039;-82
2023/10/19 01:55:57;;;;;;;17.27;13.43;;;;;;;9.33;100.00;99130.22;4956412;28;20030;-80
2023/10/19 01:58:24;;;;;;;17.98;13.25;;;;;;;9.38;100.00;99126.84;4954921;29;20054;-81
2023/10/19 02:00:50;;;;;;;17.33;13.98;;;;;;;9.38;100.00;99132.22;4954876;28;20444;-81
2023/10/19 02:03:16;;;;;;;18.65;13.98;;;;;;;9.44;100.00;99127.81;4954115;29;20023;-81
2023/10/19 02:05:42;;;;;;;16.40;12.98;;;;;;;9.48;100.00;99123.59;4954431;29;20097;-81
2023/10/19 02:08:08;;;;;;;17.35;13.70;;;;;;;9.53;100.00;99118.34;4954177;29;20098;-81
2023/10/19 02:10:35;;;;;;;19.52;14.85;;;;;;;9.52;100.00;99122.91;4956549;29;20023;-80
2023/10/19 02:13:03;;;;;;;19.85;14.07;;;;;;;9.53;100.00;99108.41;4953784;29;20031;-80
2023/10/19 02:15:28;;;;;;;20.67;14.35;;;;;;;9.58;100.00;99102.34;4957547;29;20126;-82
2023/10/19 02:18:00;;;;;;;19.17;14.25;;;;;;;9.58;100.00;99098.84;4961681;29;20031;-84
2023/10/19 02:20:25;;;;;;;20.40;14.25;;;;;;;9.58;100.00;99091.59;4941802;29;20028;-85
2023/10/19 02:25:36;;;;;;;21.67;15.50;;;;;;;9.66;100.00;99087.75;4994179;23;20066;-88
2023/10/19 02:28:02;;;;;;;17.75;14.13;;;;;;;9.75;100.00;99088.22;4975531;28;20038;-86
2023/10/19 02:30:31;;;;;;;19.30;14.13;;;;;;;9.80;100.00;99091.81;4947811;28;20031;-85
2023/10/19 02:33:03;;;;;;;17.52;13.77;;;;;;;9.84;100.00;99086.78;4971213;28;20031;-84
2023/10/19 02:35:51;;;;;;;18.60;14.02;;;;;;;9.89;100.00;99083.38;4959323;28;20039;-85
2023/10/19 02:38:33;;;;;;;19.48;13.43;;;;;;;9.96;100.00;99094.84;4978703;28;20090;-86
2023/10/19 02:41:15;;;;;;;18.50;14.20;;;;;;;9.94;100.00;99087.00;4986687;28;20026;-85
2023/10/19 02:44:09;;;;;;;18.80;14.13;;;;;;;10.00;100.00;99080.66;4984143;28;20656;-85
2023/10/19 02:47:08;;;;;;;16.65;12.98;;;;;;;10.08;100.00;99076.78;4985661;28;20042;-86
2023/10/19 02:49:58;;;;;;;18.83;13.77;;;;;;;10.08;100.00;99076.78;5183685;23;1066121;-86
2023/10/19 02:58:37;;;;;;;17.42;12.35;;;;;;;10.22;100.00;99076.56;4920321;29;20062;-85
2023/10/19 03:01:03;;;;;;;18.67;13.75;;;;;;;10.24;100.00;99071.72;4919925;29;20050;-86
2023/10/19 03:03:30;;;;;;;17.67;13.40;;;;;;;10.26;100.00;99070.44;4904516;23;20052;-86
2023/10/19 03:05:59;;;;;;;16.10;12.43;;;;;;;10.37;100.00;99071.47;4882221;29;20051;-86
2023/10/19 03:08:31;;;;;;;18.05;13.25;;;;;;;10.41;100.00;99079.91;4917160;29;20594;-86
2023/10/19 03:11:07;;;;;;;18.38;13.57;;;;;;;10.42;100.00;99060.81;4916482;29;20016;-87
2023/10/19 03:13:35;;;;;;;18.52;12.95;;;;;;;10.52;100.00;99076.34;4917930;29;20481;-86
2023/10/19 03:16:01;;;;;;;16.85;12.50;;;;;;;10.59;100.00;99081.59;4920976;29;20024;-87
2023/10/19 03:19:07;;;;;;;15.82;11.60;;;;;;;10.70;100.00;99075.34;4919589;29;20107;-87
2023/10/19 03:26:48;;;;;;;14.73;10.40;;;;;;;10.94;100.00;99072.53;4730943;26;20822;-87
2023/10/19 03:29:32;;;;;;;15.88;10.80;;;;;;;11.04;100.00;99067.28;4954803;29;20027;-87
2023/10/19 03:32:21;;;;;;;;;;;;;;;;;;;;;
2023/10/19 03:34:48;;;;;;;;;;;;;;;10.99;100.00;99074.47;4951816;29;20042;-86
2023/10/19 03:37:28;;;;;;;14.27;10.60;;;;;;;11.02;100.00;99066.72;4954214;29;19922;-87
2023/10/19 03:39:56;;;;;;;15.63;11.52;;;;;;;11.01;100.00;99065.09;4953180;29;20033;-86
2023/10/19 03:42:32;;;;;;;12.77;10.05;;;;;;;11.08;100.00;99064.91;4955144;29;20031;-86
2023/10/19 03:44:59;;;;;;;15.15;10.85;;;;;;;11.13;100.00;99073.09;4924915;29;20079;-87
2023/10/19 03:47:31;;;;;;;12.93;10.90;;;;;;;11.13;100.00;99069.56;5010015;23;20064;-86
2023/10/19 03:50:03;;;;;;;13.10;10.68;;;;;;;11.13;100.00;99067.69;4929914;29;20075;-86
2023/10/19 03:52:37;;;;;;;13.57;10.77;;;;;;;11.12;100.00;99076.84;4966954;28;20026;-86
2023/10/19 03:55:10;;;;;;;14.50;10.68;;;;;;;11.09;100.00;99065.75;4973463;28;20475;-85
2023/10/19 03:57:41;;;;;;;14.32;10.05;;;;;;;11.11;100.00;99064.44;4964954;28;20399;-86
2023/10/19 04:00:15;;;;;;;13.50;10.40;;;;;;;11.16;100.00;99066.38;4974229;28;20034;-85
2023/10/19 04:02:42;;;;;;;16.65;10.35;;;;;;;11.05;100.00;99050.06;4962482;28;20022;-85
2023/10/19 04:05:15;;;;;;;16.23;11.02;;;;;;;11.13;100.00;99053.41;4955578;28;20027;-86
2023/10/19 04:07:43;;;;;;;13.02;10.35;;;;;;;11.09;100.00;99058.47;4970096;28;20062;-85
2023/10/19 04:10:09;;;;;;;14.63;11.05;;;;;;;11.01;100.00;99046.22;4977539;28;20162;-86
2023/10/19 04:12:36;;;;;;;16.40;10.90;;;;;;;11.03;100.00;99048.69;4971719;28;20456;-86
2023/10/19 04:15:16;;;;;;;15.80;11.40;;;;;;;10.99;100.00;99045.66;4955496;28;20035;-86
2023/10/19 04:17:52;;;;;;;15.68;10.80;;;;;;;11.02;100.00;99045.19;4973772;28;20030;-85
2023/10/19 04:23:05;;;;;;;14.63;10.80;;;;;;;11.09;100.00;99036.13;5051598;23;20339;-86
2023/10/19 04:28:52;;;;;;;15.13;11.45;;;;;;;10.97;100.00;99028.94;4954575;29;20050;-86
2023/10/19 04:38:34;;;;;;;14.80;10.60;;;;;;;11.01;100.00;99029.28;4963575;29;20066;-85
2023/10/19 04:41:07;;;;;;;15.63;11.30;;;;;;;11.01;100.00;99031.97;4953655;29;20383;-85
2023/10/19 04:43:32;;;;;;;16.33;11.20;;;;;;;11.03;100.00;99025.28;4945549;28;20041;-85
2023/10/19 04:46:10;;;;;;;17.83;12.18;;;;;;;11.01;100.00;99031.97;4956798;29;20031;-85
2023/10/19 04:48:36;;;;;;;16.63;11.27;;;;;;;10.97;100.00;99023.53;4953522;29;20464;-85
2023/10/19 04:51:03;;;;;;;15.88;11.30;;;;;;;11.10;100.00;99032.38;4936696;29;20034;-85
2023/10/19 04:53:32;;;;;;;14.32;10.73;;;;;;;11.07;100.00;99029.13;4954960;28;20027;-85
2023/10/19 04:56:26;;;;;;;15.55;10.63;;;;;;;11.09;100.00;99028.06;4973694;28;20023;-85
2023/10/19 04:58:57;;;;;;;12.95;10.35;;;;;;;11.09;100.00;99025.34;4969157;28;20058;-85
2023/10/19 05:01:35;;;;;;;15.45;11.15;;;;;;;11.09;100.00;99020.78;4955230;29;20031;-85
2023/10/19 05:21:05;;;;;;;11.95;8.25;;;;;;;11.47;100.00;99031.84;4923009;23;20496;-85
2023/10/19 05:23:33;;;;;;;11.07;8.68;;;;;;;11.51;100.00;99032.97;4914723;29;20033;-84
2023/10/19 05:26:31;;;;;;;10.98;8.18;;;;;;;11.51;100.00;99032.97;4916672;29;20099;-85
2023/10/19 05:29:06;;;;;;;13.00;8.20;;;;;;;11.44;100.00;99026.94;4896436;29;20066;-85
2023/10/19 05:31:35;;;;;;;9.95;7.82;;;;;;;11.46;100.00;99024.84;4915868;29;20029;-85
2023/10/19 05:34:08;;;;;;;9.23;7.28;;;;;;;11.49;100.00;99032.41;4915711;29;20056;-85
2023/10/19 05:36:33;;;;;;;9.25;7.40;;;;;;;11.58;100.00;99032.78;4917003;29;20111;-85
2023/10/19 05:39:07;;;;;;;10.30;7.80;;;;;;;11.58;100.00;99025.53;4914823;29;20036;-84
2023/10/19 05:41:34;;;;;;;9.20;7.35;;;;;;;11.64;100.00;99031.78;4913393;29;20020;-85
2023/10/19 05:43:59;;;;;;;8.60;6.60;;;;;;;11.71;100.00;99037.00;4919482;29;20374;-85
2023/10/19 05:49:34;;;;;;;6.85;6.13;;;;;;;11.71;100.00;99053.19;4958222;23;20104;-84
2023/10/19 05:52:44;;;;;;;8.35;6.20;;;;;;;11.74;100.00;99052.69;4895956;29;20049;-88
2023/10/19 05:58:37;;;;;;;6.70;5.35;;;;;;;11.83;100.00;99051.19;4943146;23;20193;-81
2023/10/19 06:01:31;;;;;;;6.72;5.78;;;;;;;11.88;100.00;99048.56;4931566;29;20027;-81
2023/10/19 06:03:59;;;;;;;6.97;5.50;;;;;;;11.85;100.00;99048.25;4930403;29;20063;-83
2023/10/19 06:09:46;;;;;;;6.88;5.30;;;;;;;11.82;100.00;99055.75;4931542;29;20047;-84
2023/10/19 06:12:29;;;;;;;6.38;5.18;;;;;;;11.83;100.00;99056.56;4935911;29;20020;-87
2023/10/19 06:15:00;;;;;;;5.65;4.80;;;;;;;11.81;100.00;99058.72;4940294;29;20035;-89
2023/10/19 06:17:34;;;;;;;6.90;5.15;;;;;;;11.83;100.00;99068.19;4941363;29;20020;-85
2023/10/19 06:20:07;;;;;;;6.20;4.70;;;;;;;11.92;100.00;99065.03;4936111;29;20032;-87
2023/10/19 06:22:55;;;;;;;6.07;5.20;;;;;;;11.90;100.00;99069.91;4941140;29;20034;-88
2023/10/19 06:25:26;;;;;;;8.02;4.85;;;;;;;11.94;100.00;99071.00;4937426;29;20036;-86
2023/10/19 06:28:07;;;;;;;5.10;4.60;;;;;;;11.96;100.00;99072.41;4937629;29;20046;-88
2023/10/19 06:30:48;;;;;;;5.75;4.55;;;;;;;11.94;100.00;99077.22;4932513;29;20072;-85
2023/10/19 06:33:32;;;;;;;5.32;4.47;;;;;;;11.91;100.00;99079.63;4931973;29;20044;-85
2023/10/19 06:36:03;;;;;;;7.03;4.60;;;;;;;11.89;100.00;99089.84;4920891;29;20496;-89
2023/10/19 06:38:29;;;;;;;6.03;4.50;;;;;;;11.93;100.00;99083.69;4932202;29;20118;-86
2023/10/19 06:40:57;;;;;;;6.50;4.65;;;;;;;11.92;100.00;99086.63;4939528;29;20028;-87
2023/10/19 06:43:27;;;;;;;6.05;4.35;;;;;;;11.93;100.00;99089.06;4938907;29;20243;-87
2023/10/19 06:45:56;;;;;;;5.00;4.35;;;;;;;11.92;100.00;99084.75;4954264;29;20036;-87
2023/10/19 06:50:56;;;;;;;9.32;5.10;;;;;;;11.91;100.00;99091.19;4939753;23;20055;-85
2023/10/19 06:53:21;;;;;;;5.28;4.63;;;;;;;11.95;100.00;99092.34;4937819;29;20058;-86
2023/10/19 06:55:47;;;;;;;5.10;4.50;;;;;;;12.02;100.00;99092.19;4937183;29;20051;-85
2023/10/19 06:58:14;;;;;;;7.28;4.90;;;;;;;12.04;100.00;99089.22;4937065;29;20319;-84
2023/10/19 07:00:42;;;;;;;5.82;4.70;;;;;;;12.06;100.00;99096.03;4937172;29;20087;-87
2023/10/19 07:03:08;;;;;;;8.15;4.50;;;;;;;12.04;100.00;99097.31;4934952;29;20032;-83
2023/10/19 07:05:34;;;;;;;10.23;4.88;;;;;;;12.03;100.00;99091.13;4934590;29;20044;-87
2023/10/19 07:08:36;;;;;;;9.55;4.60;;;;;;;12.04;100.00;99095.44;4943330;23;20075;-87
2023/10/19 07:12:04;;;;;;;;;;;;;;;;;;;;;
2023/10/19 07:28:56;;;;;;;8.30;4.45;;;;;;;12.22;100.00;99113.19;4902115;29;20051;-83
2023/10/19 07:31:37;;;;;;;8.18;4.43;;;;;;;12.36;100.00;99123.59;4912061;29;20027;-88
2023/10/19 07:37:33;;;;;;;5.15;3.95;;;;;;;12.57;100.00;99120.09;4900307;29;20043;-86
2023/10/19 07:43:59;;;;;;;9.90;4.18;;;;;;;12.67;100.00;99124.78;4960579;29;20054;-89
2023/10/19 07:52:35;;;;;;;8.95;3.70;;;;;;;12.86;100.00;99127.97;5229797;23;20064;-88
2023/10/19 07:55:31;;;;;;;4.38;3.40;;;;;;;12.96;100.00;99129.13;4934701;29;20060;-88
2023/10/19 08:08:03;;;;;;;5.00;3.20;;;;;;;13.18;100.00;99134.44;4943178;29;20070;-87
2023/10/19 08:10:54;;;;;;;5.45;3.72;;;;;;;13.29;100.00;99130.78;4934203;29;20032;-88
2023/10/19 08:25:41;;;;;;;5.22;3.20;;;;;;;13.52;100.00;99128.00;5418477;23;20064;-88
2023/10/19 08:28:43;;;;;;;4.50;3.50;;;;;;;13.52;100.00;99123.41;4917218;29;20119;-88
2023/10/19 08:33:38;;;;;;;6.18;3.30;;;;;;;13.48;100.00;99122.31;5359763;23;20059;-87
2023/10/19 08:36:32;;;;;;;6.93;3.35;;;;;;;13.63;100.00;99130.53;4954454;29;20488;-87
2023/10/19 08:39:25;;;;;;;3.80;3.22;;;;;;;13.69;100.00;99125.13;4952572;29;20038;-88
2023/10/19 08:45:34;;;;;;;7.90;3.75;;;;;;;14.08;100.00;99130.25;4952860;29;20042;-86
2023/10/19 09:31:46;;;;;;;4.75;2.67;;;;;;;15.36;100.00;99104.56;4945951;29;20038;-89
2023/10/19 09:34:31;;;;;;;6.03;2.33;;;;;;;15.48;100.00;99079.06;4917864;29;20087;-79
2023/10/19 09:37:09;;;;;;;3.58;2.25;;;;;;;15.48;100.00;99079.91;4906382;29;20036;-84
2023/10/19 09:39:35;;;;;;;4.30;2.25;;;;;;;15.53;100.00;99087.22;4933641;29;20027;-84
2023/10/19 09:45:05;;;;;;;3.67;2.75;;;;;;;15.49;100.00;99091.53;5031349;23;20066;-85
2023/10/19 09:47:31;;;;;;;5.15;2.58;;;;;;;15.42;100.00;99089.13;4939585;29;20114;-87
2023/10/19 09:49:57;;;;;;;7.03;2.75;;;;;;;15.41;100.00;99087.50;4952375;29;20031;-81
2023/10/19 09:52:23;;;;;;;3.85;2.83;;;;;;;15.50;100.00;99094.00;4954627;28;20030;-82
2023/10/19 09:55:32;;;;;;;7.13;2.45;;;;;;;15.54;100.00;99108.63;5452430;23;20256;-84
2023/10/19 09:57:57;;;;;;;9.07;2.40;;;;;;;15.69;100.00;99107.00;4957324;28;20059;-84
2023/10/19 10:09:46;;;;;;;7.03;3.57;;;;;;;16.29;100.00;99100.84;5777680;23;20047;-78
2023/10/19 10:12:35;;;;;;;8.02;2.35;;;;;;;16.45;100.00;99099.69;4921575;29;20043;-78
2023/10/19 10:15:07;;;;;;;5.90;2.25;;;;;;;16.55;100.00;99101.53;4953171;29;20051;-79
2023/10/19 10:17:37;;;;;;;7.25;2.15;;;;;;;16.59;100.00;99097.19;4955854;29;20024;-79
2023/10/19 10:20:11;;;;;;;4.80;2.30;;;;;;;16.71;100.00;99094.13;4949021;28;20070;-79
2023/10/19 10:22:37;;;;;;;3.35;2.10;;;;;;;16.68;99.67;99097.41;4954850;29;20036;-78
2023/10/19 10:25:02;;;;;;;4.10;2.28;;;;;;;16.64;99.05;99099.06;4938565;29;20039;-78
2023/10/19 10:27:30;;;;;;;5.53;2.17;;;;;;;16.58;99.50;99103.72;4955458;29;20042;-78
2023/10/19 10:29:56;;;;;;;5.28;2.35;;;;;;;16.66;100.00;99103.13;4955122;28;20031;-80
2023/10/19 10:32:52;;;;;;;4.07;2.30;;;;;;;16.77;97.98;99109.28;4955362;29;20070;-79
2023/10/19 10:35:39;;;;;;;5.73;2.67;;;;;;;16.91;99.00;99105.97;4937498;29;20024;-78
2023/10/19 10:38:05;;;;;;;5.32;2.42;;;;;;;16.86;99.44;99100.56;4954629;29;20042;-79
2023/10/19 10:40:49;;;;;;;7.88;2.47;;;;;;;17.19;100.00;99109.03;4954031;29;20551;-78
2023/10/19 10:43:15;;;;;;;5.82;2.80;;;;;;;17.56;98.46;99096.75;4955858;28;20027;-79
2023/10/19 10:46:10;;;;;;;3.88;2.22;;;;;;;17.88;92.71;99098.06;5284048;23;20150;-80
2023/10/19 10:48:56;;;;;;;4.70;2.55;;;;;;;18.05;93.02;99102.25;4896444;29;20060;-79
2023/10/19 10:51:30;;;;;;;7.53;2.75;;;;;;;18.05;90.09;99104.97;4913259;29;20047;-78
2023/10/19 10:53:57;;;;;;;7.68;2.90;;;;;;;18.14;89.92;99103.25;4937154;23;20833;-78
2023/10/19 11:00:07;;;;;;;12.13;2.90;;;;;;;18.29;90.00;99094.91;4972239;28;20163;-77
2023/10/19 11:02:45;;;;;;;8.77;2.92;;;;;;;18.44;88.83;99093.06;4947803;28;20106;-79
2023/10/19 11:05:54;;;;;;;5.35;2.70;;;;;;;18.28;86.81;99090.56;4965614;28;20090;-77
2023/10/19 11:08:46;;;;;;;4.53;2.70;;;;;;;18.15;87.63;99085.81;4973993;28;20039;-78
2023/10/19 11:11:17;;;;;;;5.13;2.42;;;;;;;18.06;90.47;99076.66;4892208;29;20089;-78
2023/10/19 11:13:54;;;;;;;6.80;2.92;;;;;;;17.78;90.21;99073.69;4887378;29;20132;-78
2023/10/19 11:16:43;;;;;;;6.20;3.40;;;;;;;17.69;92.47;99062.63;4878134;29;20028;-78
2023/10/19 11:19:17;;;;;;;4.57;2.47;;;;;;;17.54;90.77;99058.13;4893591;29;20036;-78
2023/10/19 11:22:02;;;;;;;4.35;2.40;;;;;;;17.48;91.86;99051.13;4893859;29;20447;-78
2023/10/19 11:24:37;;;;;;;5.97;2.50;;;;;;;17.49;92.29;99048.13;4893203;29;20108;-78
2023/10/19 11:27:02;;;;;;;5.22;3.17;;;;;;;17.51;93.41;99050.56;4955326;29;20027;-78
2023/10/19 11:33:05;;;;;;;6.80;2.40;;;;;;;19.11;83.69;99056.66;4962869;28;20053;-78
2023/10/19 11:39:34;;;;;;;6.60;2.70;;;;;;;20.55;75.33;99044.06;4972806;28;20149;-78
2023/10/19 11:41:59;;;;;;;;;;;;;;;20.31;75.19;99042.41;4969419;28;20034;-78
2023/10/19 11:44:31;;;;;;;5.80;2.57;;;;;;;20.66;76.71;99039.97;4972954;28;20001;-79
2023/10/19 11:46:56;;;;;;;6.20;2.28;;;;;;;21.25;71.75;99030.94;4962772;28;20054;-79
2023/10/19 11:49:27;;;;;;;4.75;2.35;;;;;;;21.62;71.63;99034.34;4964521;28;20475;-79
2023/10/19 11:52:09;;;;;;;8.07;2.28;;;;;;;23.11;65.34;99031.00;4972068;28;20039;-79
2023/10/19 11:54:34;;;;;;;7.45;2.20;;;;;;;23.60;62.23;99035.41;4972825;28;20047;-78
2023/10/19 11:57:00;;;;;;;6.75;2.20;;;;;;;23.68;63.87;99026.31;4972955;28;20031;-78
2023/10/19 11:59:26;;;;;;;5.60;1.90;;;;;;;23.99;60.85;99022.47;4965854;28;20054;-78
2023/10/19 12:01:51;;;;;;;8.07;2.30;;;;;;;23.86;60.41;99020.72;4968554;28;20123;-78
2023/10/19 12:04:17;;;;;;;6.60;2.30;;;;;;;22.67;64.91;99027.50;5187664;23;20059;-78
2023/10/19 12:06:43;;;;;;;5.72;2.38;;;;;;;21.61;67.37;99007.31;4974133;28;20033;-78
2023/10/19 12:09:14;;;;;;;7.28;2.10;;;;;;;21.18;70.36;99008.69;4956936;28;20122;-77
2023/10/19 12:11:40;;;;;;;8.68;2.10;;;;;;;20.67;71.71;99008.78;4965917;28;20036;-78
2023/10/19 12:14:11;;;;;;;8.70;2.60;;;;;;;20.86;70.32;99016.84;4958117;29;20083;-79
2023/10/19 12:16:36;;;;;;;9.23;2.33;;;;;;;22.06;66.39;99003.56;4957325;28;20027;-79
2023/10/19 12:19:03;;;;;;;4.75;1.90;;;;;;;23.01;62.69;99014.88;4952429;28;20171;-79
2023/10/19 12:21:30;;;;;;;6.43;2.17;;;;;;;23.66;60.50;99016.78;4955446;28;20038;-78
2023/10/19 12:23:56;;;;;;;6.18;2.25;;;;;;;23.66;60.99;99003.84;4969783;28;20038;-79
2023/10/19 12:26:22;;;;;;;7.63;2.10;;;;;;;23.64;59.73;99008.91;4970790;28;20514;-79
2023/10/19 12:28:50;;;;;;;4.43;1.90;;;;;;;24.77;57.41;99001.06;4973368;28;20098;-84
2023/10/19 13:05:39;;;;;;;7.93;2.63;;;;;;;19.15;75.53;98981.31;5475893;23;20063;-87
2023/10/19 13:11:32;;;;;;;10.02;2.92;;;;;;;18.59;80.00;98970.22;4956410;29;20271;-87
2023/10/19 13:14:00;;;;;;;8.93;2.88;;;;;;;18.39;81.24;98970.53;4954116;28;20391;-87
2023/10/19 13:20:15;;;;;;;6.93;2.88;;;;;;;18.12;84.26;98961.13;4935634;29;20058;-87
2023/10/19 13:22:41;;;;;;;9.25;3.00;;;;;;;18.02;85.86;98965.59;5086967;23;20280;-87
2023/10/19 13:28:50;;;;;;;8.80;2.60;;;;;;;17.66;88.52;98963.31;4852833;29;20096;-88
2023/10/19 13:37:07;;;;;;;6.78;2.75;;;;;;;17.30;92.17;98947.41;4957913;28;20121;-88
2023/10/19 13:42:58;;;;;;;10.77;2.85;;;;;;;17.01;93.54;98940.09;4952977;29;20061;-86
2023/10/19 13:45:34;;;;;;;8.63;2.60;;;;;;;16.96;94.90;98951.00;4951203;29;20034;-86
2023/10/19 13:51:12;;;;;;;7.03;2.67;;;;;;;16.98;95.81;98956.97;4947690;29;20074;-86
2023/10/19 13:56:31;;;;;;;11.70;3.22;;;;;;;16.83;95.48;98958.72;4936719;29;20047;-87
2023/10/19 13:59:33;;;;;;;11.35;3.28;;;;;;;16.80;95.81;98951.13;4947808;29;20035;-87
2023/10/19 14:01:59;;;;;;;8.32;3.50;;;;;;;16.76;95.63;98939.22;4942516;29;20526;-86
2023/10/19 14:05:00;;;;;;;9.27;4.03;;;;;;;16.69;96.84;98933.28;4946159;29;20107;-86
2023/10/19 14:07:47;;;;;;;8.45;3.40;;;;;;;16.75;97.06;98937.59;4937297;29;20628;-86
2023/10/19 14:10:31;;;;;;;12.70;4.03;;;;;;;16.73;98.21;98934.34;4937606;29;20059;-86
2023/10/19 14:13:31;;;;;;;9.23;4.80;;;;;;;16.83;98.26;98945.13;4951042;28;20543;-85
2023/10/19 14:15:57;;;;;;;11.98;4.53;;;;;;;16.87;98.90;98939.13;4945407;29;20027;-87
2023/10/19 14:18:47;;;;;;;8.23;3.60;;;;;;;16.97;98.14;98939.03;5177446;23;20126;-86
2023/10/19 14:21:53;;;;;;;10.85;3.90;;;;;;;16.92;98.81;98936.38;4959450;29;20035;-87
2023/10/19 14:35:15;;;;;;;;;;;;;;;;;;;;;
2023/10/19 14:41:44;;;;;;;7.50;2.70;;;;;;;16.31;100.00;98922.19;4893657;29;20120;-87
2023/10/19 15:28:48;;;;;;;19.20;8.73;;;;;;;15.40;100.00;98863.53;4917009;29;20035;-87
2023/10/19 15:31:32;;;;;;;7.68;2.70;;;;;;;15.35;100.00;98863.56;4913306;29;20036;-87
2023/10/19 15:33:58;;;;;;;7.43;2.75;;;;;;;15.31;100.00;98861.41;4902761;29;20434;-86
2023/10/19 15:53:06;;;;;;;7.00;3.13;;;;;;;15.05;100.00;98859.88;4980726;23;20055;-88
2023/10/19 16:02:44;;;;;;;6.32;2.72;;;;;;;14.93;100.00;98852.03;4977784;23;20066;-88
2023/10/19 16:25:30;;;;;;;7.78;3.78;;;;;;;14.77;100.00;98818.78;5409606;23;20149;-88
2023/10/19 16:37:30;;;;;;;7.22;4.30;;;;;;;14.54;100.00;98818.25;5005756;23;20066;-90
2023/10/19 16:43:32;;;;;;;8.82;4.22;;;;;;;14.52;100.00;98805.00;4923667;23;20131;-88
2023/10/19 16:46:12;;;;;;;8.20;4.95;;;;;;;14.51;100.00;98805.25;4915572;29;20031;-90
2023/10/19 16:52:10;;;;;;;9.52;4.10;;;;;;;14.44;100.00;98808.25;4919267;29;20193;-89
2023/10/19 16:57:59;;;;;;;8.68;4.57;;;;;;;14.38;100.00;98799.31;4913920;29;20102;-89
2023/10/19 17:00:43;;;;;;;9.15;3.83;;;;;;;14.37;100.00;98808.53;4912395;29;20082;-88
2023/10/19 17:03:30;;;;;;;6.63;3.33;;;;;;;14.34;100.00;98802.84;4915142;29;20109;-88
2023/10/19 17:09:35;;;;;;;10.18;4.00;;;;;;;14.26;100.00;98815.03;4955344;23;20630;-88
2023/10/19 17:25:56;;;;;;;8.20;3.90;;;;;;;14.32;100.00;98832.09;4952175;29;20427;-87
2023/10/19 17:38:58;;;;;;;8.98;3.72;;;;;;;14.08;100.00;98819.91;5052107;23;20269;-87
2023/10/19 17:41:32;;;;;;;6.43;3.80;;;;;;;14.08;100.00;98809.09;4932642;29;20027;-88
2023/10/19 17:43:58;;;;;;;7.90;3.90;;;;;;;14.01;100.00;98822.06;4951245;28;20048;-87
2023/10/19 17:49:03;;;;;;;8.88;4.05;;;;;;;13.94;100.00;98822.34;5200233;23;20130;-88
2023/10/19 17:51:55;;;;;;;7.60;4.10;;;;;;;13.85;100.00;98813.16;4966127;28;20074;-87
2023/10/19 17:54:30;;;;;;;10.50;3.80;;;;;;;13.79;100.00;98815.00;5037906;23;20768;-87
2023/10/19 17:56:56;;;;;;;6.25;3.60;;;;;;;13.74;100.00;98812.31;4967947;28;20051;-87
2023/10/19 17:59:50;;;;;;;7.80;4.20;;;;;;;13.68;100.00;98807.97;4956029;28;20041;-86
2023/10/19 18:02:53;;;;;;;9.13;4.35;;;;;;;13.65;100.00;98803.09;4972316;28;20027;-87
2023/10/19 18:05:30;;;;;;;8.02;3.88;;;;;;;13.55;100.00;98792.28;4953746;29;20055;-87
2023/10/19 18:07:56;;;;;;;5.85;4.25;;;;;;;13.49;100.00;98800.38;4951751;29;20381;-87
2023/10/19 18:10:56;;;;;;;8.32;4.72;;;;;;;13.41;100.00;98795.50;4964247;28;20074;-88
2023/10/19 18:21:54;;;;;;;8.82;5.95;;;;;;;13.29;100.00;98778.66;5543992;23;20063;-86
2023/10/19 18:24:22;;;;;;;8.30;5.68;;;;;;;13.25;100.00;98772.97;4961056;28;20405;-85
2023/10/19 18:26:50;;;;;;;10.20;5.88;;;;;;;13.25;100.00;98772.16;4959820;28;20162;-89
2023/10/19 18:29:15;;;;;;;10.55;5.80;;;;;;;13.21;100.00;98771.88;4952399;28;20143;-87
2023/10/19 18:31:41;;;;;;;10.02;6.57;;;;;;;13.15;100.00;98762.97;4955411;28;20069;-87
2023/10/19 18:34:06;;;;;;;12.48;6.70;;;;;;;13.12;100.00;98758.06;4957059;28;20039;-88
2023/10/19 18:53:56;;;;;;;11.95;6.78;;;;;;;12.85;100.00;98756.38;4949128;29;20189;-85
2023/10/19 18:56:53;;;;;;;12.45;6.60;;;;;;;12.84;100.00;98753.94;4931424;29;20035;-88
2023/10/19 19:03:33;;;;;;;15.55;6.25;;;;;;;12.74;100.00;98752.81;4954581;29;20111;-86
2023/10/19 19:09:28;;;;;;;9.20;6.60;;;;;;;12.64;100.00;98751.94;4940273;29;20091;-86
2023/10/19 19:12:31;;;;;;;15.23;7.30;;;;;;;12.66;100.00;98755.22;4937403;29;20040;-86
2023/10/19 19:14:59;;;;;;;11.40;6.45;;;;;;;12.64;100.00;98760.84;4940614;29;20023;-88
2023/10/19 19:27:14;;;;;;;12.52;7.25;;;;;;;12.53;100.00;98741.09;4861043;29;20106;-85